createdAt,value
2018-10-16T00:00:15.756Z,34.63
2018-10-16T00:02:45.670Z,23.70
2018-10-16T00:05:15.140Z,24.23
2018-10-16T00:07:44.362Z,32.37
2018-10-16T00:10:13.500Z,27.90
2018-10-16T00:12:42.637Z,23.73
2018-10-16T00:15:11.960Z,30.80
2018-10-16T00:17:41.073Z,30.20
2018-10-16T00:20:10.213Z,21.97
2018-10-16T00:22:39.358Z,23.03
2018-10-16T00:25:13.471Z,21.30
2018-10-16T00:27:42.618Z,22.83
2018-10-16T00:30:11.865Z,27.13
2018-10-16T00:32:41.802Z,24.43
2018-10-16T00:35:11.121Z,25.40
2018-10-16T00:37:40.239Z,21.27
2018-10-16T00:40:09.922Z,25.43
2018-10-16T00:42:39.006Z,26.63
2018-10-16T00:45:09.937Z,23.27
2018-10-16T00:47:39.109Z,23.63
2018-10-16T00:50:08.473Z,26.83
2018-10-16T00:52:37.916Z,23.77
2018-10-16T00:55:07.879Z,24.00
2018-10-16T00:57:37.037Z,19.33
2018-10-16T01:00:06.870Z,20.57
2018-10-16T01:02:35.910Z,20.80
2018-10-16T01:05:06.459Z,22.03
2018-10-16T01:07:35.483Z,20.37
2018-10-16T01:10:04.897Z,20.40
2018-10-16T01:12:33.939Z,21.70
2018-10-16T01:15:03.004Z,24.57
2018-10-16T01:17:32.127Z,23.30
2018-10-16T01:20:01.203Z,26.33
2018-10-16T01:22:30.257Z,22.70
2018-10-16T01:24:59.304Z,24.43
2018-10-16T01:27:28.377Z,26.07
2018-10-16T01:29:57.410Z,22.20
2018-10-16T01:32:26.488Z,22.90
2018-10-16T01:34:55.985Z,25.43
2018-10-16T01:37:25.202Z,21.50
2018-10-16T01:39:54.263Z,25.37
2018-10-16T01:42:23.327Z,20.90
2018-10-16T01:44:52.375Z,21.67
2018-10-16T01:47:21.852Z,26.47
2018-10-16T01:49:51.005Z,34.10
2018-10-16T01:52:20.073Z,22.77
2018-10-16T01:54:49.167Z,21.93
2018-10-16T01:57:18.203Z,23.10
2018-10-16T01:59:47.270Z,26.53
2018-10-16T02:02:16.353Z,28.57
2018-10-16T02:04:45.397Z,22.97
2018-10-16T02:07:14.499Z,32.63
2018-10-16T02:09:43.544Z,21.03
2018-10-16T02:12:12.610Z,23.53
2018-10-16T02:14:41.747Z,25.27
2018-10-16T02:17:10.748Z,23.83
2018-10-16T02:19:39.866Z,31.07
2018-10-16T02:22:08.972Z,21.93
2018-10-16T02:24:38.022Z,23.13
2018-10-16T02:27:07.043Z,23.70
2018-10-16T02:29:36.351Z,25.00
2018-10-16T02:32:05.689Z,21.67
2018-10-16T02:34:34.789Z,21.20
2018-10-16T02:37:03.826Z,24.00
2018-10-16T02:39:32.902Z,21.97
2018-10-16T02:42:01.962Z,34.03
2018-10-16T02:44:31.111Z,25.43
2018-10-16T02:47:00.195Z,24.17
2018-10-16T02:49:29.240Z,22.30
2018-10-16T02:51:58.369Z,27.20
2018-10-16T02:54:27.404Z,23.80
2018-10-16T02:56:56.532Z,23.13
2018-10-16T02:59:25.749Z,25.87
2018-10-16T03:01:54.776Z,31.30
2018-10-16T03:04:23.822Z,30.27
2018-10-16T03:06:52.858Z,27.53
2018-10-16T03:09:21.880Z,25.57
2018-10-16T03:11:50.946Z,22.83
2018-10-16T03:14:20.124Z,22.73
2018-10-16T03:16:49.168Z,26.30
2018-10-16T03:19:18.354Z,28.40
2018-10-16T03:21:47.556Z,23.33
2018-10-16T03:24:16.643Z,28.13
2018-10-16T03:26:45.694Z,24.23
2018-10-16T03:29:14.732Z,23.40
2018-10-16T03:31:43.794Z,25.73
2018-10-16T03:34:12.871Z,23.00
2018-10-16T03:36:41.933Z,26.03
2018-10-16T03:39:12.428Z,24.70
2018-10-16T03:41:41.531Z,26.53
2018-10-16T03:44:12.437Z,31.73
2018-10-16T03:46:41.638Z,24.33
2018-10-16T03:49:11.539Z,23.90
2018-10-16T03:51:41.346Z,23.10
2018-10-16T03:54:10.885Z,23.27
2018-10-16T03:56:40.084Z,24.93
2018-10-16T03:59:09.142Z,23.10
2018-10-16T04:01:39.194Z,23.50
2018-10-16T04:04:08.318Z,26.17
2018-10-16T04:06:37.402Z,31.07
2018-10-16T04:09:07.896Z,24.97
2018-10-16T04:11:37.432Z,28.00
2018-10-16T04:14:06.647Z,27.60
2018-10-16T04:16:35.733Z,25.67
2018-10-16T04:19:05.005Z,24.80
2018-10-16T04:21:50.333Z,30.10
2018-10-16T04:24:19.384Z,27.63
2018-10-16T04:26:49.393Z,33.10
2018-10-16T04:29:18.622Z,30.30
2018-10-16T04:31:47.604Z,25.80
2018-10-16T04:34:16.731Z,26.37
2018-10-16T04:36:45.944Z,25.33
2018-10-16T04:39:15.312Z,25.80
2018-10-16T04:41:44.452Z,26.60
2018-10-16T04:44:13.405Z,30.17
2018-10-16T04:46:42.462Z,30.60
2018-10-16T04:49:11.500Z,25.63
2018-10-16T04:51:40.542Z,24.60
2018-10-16T04:54:09.837Z,28.80
2018-10-16T04:56:38.899Z,24.90
2018-10-16T04:59:07.996Z,28.13
2018-10-16T05:01:37.023Z,27.90
2018-10-16T05:04:06.576Z,26.07
2018-10-16T05:06:35.604Z,33.23
2018-10-16T05:09:06.726Z,30.97
2018-10-16T05:11:40.021Z,27.53
2018-10-16T05:14:09.372Z,35.30
2018-10-16T05:16:38.663Z,26.73
2018-10-16T05:19:07.946Z,30.43
2018-10-16T05:21:37.315Z,34.07
2018-10-16T05:24:07.038Z,26.63
2018-10-16T05:26:36.146Z,27.13
2018-10-16T05:29:05.769Z,35.00
2018-10-16T05:31:35.046Z,30.93
2018-10-16T05:34:04.106Z,26.53
2018-10-16T05:36:33.259Z,29.70
2018-10-16T05:39:02.540Z,28.07
2018-10-16T05:41:31.592Z,30.30
2018-10-16T05:44:00.863Z,35.00
2018-10-16T05:46:29.988Z,33.80
2018-10-16T05:49:07.332Z,33.20
2018-10-16T05:51:38.940Z,23.97
2018-10-16T05:54:10.511Z,27.00
2018-10-16T05:56:41.990Z,27.30
2018-10-16T05:59:13.267Z,26.87
2018-10-16T06:01:45.274Z,31.40
2018-10-16T06:04:16.478Z,26.77
2018-10-16T06:06:47.405Z,27.43
2018-10-16T06:09:24.219Z,25.77
2018-10-16T06:11:57.323Z,30.43
2018-10-16T06:14:27.313Z,26.23
2018-10-16T06:16:58.806Z,54.43
2018-10-16T06:19:30.197Z,28.33
2018-10-16T06:22:05.849Z,34.37
2018-10-16T06:24:37.828Z,29.60
2018-10-16T06:27:13.861Z,26.07
2018-10-16T06:29:46.257Z,32.93
2018-10-16T06:32:20.882Z,32.27
2018-10-16T06:34:53.185Z,34.00
2018-10-16T06:37:24.319Z,51.47
2018-10-16T06:42:46.694Z,44.45
2018-10-16T06:45:21.172Z,34.90
2018-10-16T06:47:53.606Z,34.67
2018-10-16T06:50:25.365Z,29.77
2018-10-16T06:53:00.284Z,35.67
2018-10-16T06:55:34.092Z,28.33
2018-10-16T06:58:06.353Z,33.30
2018-10-16T07:00:39.793Z,57.43
2018-10-16T07:03:11.594Z,46.33
2018-10-16T07:05:44.090Z,36.03
2018-10-16T07:08:15.720Z,31.00
2018-10-16T07:10:48.353Z,46.90
2018-10-16T07:13:21.856Z,36.60
2018-10-16T07:15:55.756Z,32.77
2018-10-16T07:18:28.306Z,30.23
2018-10-16T07:21:09.666Z,28.83
2018-10-16T07:23:41.770Z,28.57
2018-10-16T07:26:13.323Z,36.10
2018-10-16T07:28:47.430Z,25.80
2018-10-16T07:44:36.747Z,36.30
2018-10-16T07:47:06.224Z,31.17
2018-10-16T07:49:48.951Z,28.43
2018-10-16T07:55:53.838Z,26.43
2018-10-16T07:58:48.290Z,41.13
2018-10-16T08:01:17.495Z,25.77
2018-10-16T08:04:13.760Z,38.07
2018-10-16T08:06:43.811Z,33.83
2018-10-16T08:09:15.243Z,29.27
2018-10-16T08:11:46.153Z,27.57
2018-10-16T08:14:22.308Z,31.13
2018-10-16T09:11:53.894Z,35.40
2018-10-16T09:17:48.466Z,34.50
2018-10-16T09:30:27.810Z,32.63
2018-10-16T09:32:57.160Z,45.20
2018-10-16T09:50:46.917Z,32.13
2018-10-16T09:53:48.977Z,36.87
2018-10-16T09:56:29.481Z,32.60
2018-10-16T09:58:58.809Z,38.73
2018-10-16T10:05:07.835Z,42.13
2018-10-16T10:07:40.657Z,37.40
2018-10-16T10:10:23.747Z,42.27
2018-10-16T10:12:54.912Z,53.40
2018-10-16T10:15:29.994Z,30.73
2018-10-16T10:21:04.549Z,49.87
2018-10-16T10:23:33.628Z,33.17
2018-10-16T10:26:02.813Z,68.03
2018-10-16T10:28:31.923Z,43.03
2018-10-16T10:31:01.026Z,34.57
2018-10-16T10:33:30.140Z,39.53
2018-10-16T10:35:59.381Z,52.47
2018-10-16T10:38:28.627Z,49.77
2018-10-16T10:40:57.737Z,38.60
2018-10-16T10:43:27.108Z,51.03
2018-10-16T10:45:56.471Z,40.83
2018-10-16T10:48:25.543Z,38.30
2018-10-16T10:50:54.843Z,35.37
2018-10-16T10:53:23.981Z,35.13
2018-10-16T10:55:53.071Z,39.60
2018-10-16T10:58:22.189Z,36.37
2018-10-16T11:00:51.497Z,40.83
2018-10-16T11:03:20.857Z,47.07
2018-10-16T11:05:50.337Z,39.17
2018-10-16T11:08:19.753Z,44.93
2018-10-16T11:10:48.970Z,34.63
2018-10-16T11:13:18.299Z,43.40
2018-10-16T11:15:47.438Z,42.30
2018-10-16T11:18:16.688Z,35.37
2018-10-16T11:20:45.787Z,52.50
2018-10-16T11:23:14.835Z,38.20
2018-10-16T11:25:43.939Z,34.37
2018-10-16T11:28:17.271Z,34.63
2018-10-16T11:30:46.634Z,33.30
2018-10-16T11:33:15.906Z,48.63
2018-10-16T11:35:45.133Z,45.40
2018-10-16T11:38:14.371Z,38.53
2018-10-16T11:40:43.588Z,44.87
2018-10-16T11:43:12.787Z,31.50
2018-10-16T11:45:42.221Z,41.77
2018-10-16T11:48:11.447Z,29.03
2018-10-16T11:50:40.625Z,37.87
2018-10-16T11:53:10.120Z,36.87
2018-10-16T11:55:39.370Z,43.97
2018-10-16T11:58:08.517Z,31.33
2018-10-16T12:00:37.635Z,44.70
2018-10-16T12:03:06.786Z,39.40
2018-10-16T12:05:35.870Z,45.77
2018-10-16T12:08:05.219Z,29.10
2018-10-16T12:10:34.293Z,27.07
2018-10-16T12:13:03.362Z,35.13
2018-10-16T12:15:32.398Z,36.07
2018-10-16T12:18:06.131Z,30.23
2018-10-16T12:21:08.918Z,35.23
2018-10-16T12:23:38.087Z,28.13
2018-10-16T12:26:08.138Z,33.03
2018-10-16T12:28:37.369Z,32.53
2018-10-16T12:31:08.429Z,34.30
2018-10-16T12:33:37.777Z,37.03
2018-10-16T12:36:06.950Z,30.70
2018-10-16T12:38:36.340Z,37.57
2018-10-16T12:41:05.622Z,37.80
2018-10-16T12:43:34.937Z,36.57
2018-10-16T12:46:04.187Z,34.73
2018-10-16T12:48:33.265Z,40.20
2018-10-16T12:51:02.567Z,39.10
2018-10-16T12:53:31.572Z,32.73
2018-10-16T12:56:00.709Z,34.17
2018-10-16T12:58:29.690Z,56.83
2018-10-16T13:00:58.875Z,44.93
2018-10-16T13:03:27.939Z,36.57
2018-10-16T13:05:56.990Z,31.33
2018-10-16T13:08:26.117Z,36.70
2018-10-16T13:10:55.263Z,45.77
2018-10-16T13:13:24.636Z,36.83
2018-10-16T13:15:54.245Z,32.77
2018-10-16T13:18:23.737Z,40.30
2018-10-16T13:20:53.026Z,30.33
2018-10-16T13:25:59.842Z,34.27
2018-10-16T13:28:28.824Z,33.90
2018-10-16T13:30:57.878Z,32.90
2018-10-16T13:33:26.994Z,35.50
2018-10-16T13:35:56.053Z,34.23
2018-10-16T13:38:25.131Z,33.70
2018-10-16T13:40:54.259Z,33.37
2018-10-16T13:43:23.290Z,31.90
2018-10-16T13:45:52.412Z,32.20
2018-10-16T13:48:22.094Z,34.13
2018-10-16T13:50:51.224Z,39.13
2018-10-16T13:53:20.376Z,32.97
2018-10-16T13:55:49.676Z,34.17
2018-10-16T13:58:19.214Z,32.10
2018-10-16T14:00:48.424Z,36.23
2018-10-16T14:03:17.636Z,35.03
2018-10-16T14:05:47.065Z,37.20
2018-10-16T14:08:16.442Z,32.27
2018-10-16T14:10:45.390Z,42.70
2018-10-16T14:13:14.494Z,31.53
2018-10-16T14:15:43.548Z,39.63
2018-10-16T14:18:12.574Z,34.20
2018-10-16T14:20:41.611Z,38.13
2018-10-16T14:23:10.780Z,35.57
2018-10-16T14:25:39.985Z,34.10
2018-10-16T14:28:09.096Z,35.90
2018-10-16T14:30:38.088Z,36.40
2018-10-16T14:33:10.320Z,36.07
2018-10-16T14:35:39.585Z,41.63
2018-10-16T14:38:08.697Z,39.40
2018-10-16T14:40:37.837Z,54.10
2018-10-16T14:43:06.987Z,42.10
2018-10-16T14:45:36.100Z,35.50
2018-10-16T14:48:05.445Z,33.50
2018-10-16T14:50:34.460Z,33.83
2018-10-16T14:53:03.509Z,39.30
2018-10-16T14:55:32.687Z,37.67
2018-10-16T14:58:01.924Z,34.97
2018-10-16T15:00:31.027Z,37.07
2018-10-16T15:03:00.145Z,37.10
2018-10-16T15:05:29.505Z,36.03
2018-10-16T15:07:58.782Z,33.87
2018-10-16T15:10:27.874Z,33.70
2018-10-16T15:12:57.137Z,37.10
2018-10-16T15:15:26.559Z,31.77
2018-10-16T15:17:55.645Z,41.53
2018-10-16T15:20:24.767Z,32.93
2018-10-16T15:22:53.859Z,38.43
2018-10-16T15:25:22.927Z,40.63
2018-10-16T15:27:52.014Z,36.70
2018-10-16T15:30:21.183Z,38.17
2018-10-16T15:32:50.264Z,48.23
2018-10-16T15:35:19.460Z,46.40
2018-10-16T15:37:48.751Z,40.73
2018-10-16T15:40:17.948Z,50.60
2018-10-16T15:42:47.159Z,40.93
2018-10-16T15:45:16.345Z,34.93
2018-10-16T15:47:45.492Z,39.60
2018-10-16T15:50:14.669Z,36.90
2018-10-16T15:52:43.673Z,38.87
2018-10-16T15:55:12.750Z,43.73
2018-10-16T15:57:41.879Z,39.23
2018-10-16T16:00:14.817Z,42.23
2018-10-16T16:02:43.869Z,41.83
2018-10-16T16:05:13.104Z,44.17
2018-10-16T16:07:42.266Z,41.30
2018-10-16T16:10:14.133Z,39.90
2018-10-16T16:12:43.574Z,42.20
2018-10-16T16:15:13.458Z,37.70
2018-10-16T16:17:43.033Z,50.90
2018-10-16T16:20:13.397Z,42.90
2018-10-16T16:22:42.604Z,37.73
2018-10-16T16:25:13.108Z,43.17
2018-10-16T16:27:42.807Z,41.60
2018-10-16T16:30:15.092Z,34.70
2018-10-16T16:32:44.360Z,37.93
2018-10-16T16:35:13.552Z,39.30
2018-10-16T16:37:43.110Z,47.57
2018-10-16T16:40:15.398Z,43.27
2018-10-16T16:42:45.192Z,44.80
2018-10-16T16:45:15.134Z,55.00
2018-10-16T16:47:44.345Z,41.70
2018-10-16T16:50:14.924Z,48.93
2018-10-16T16:52:44.328Z,52.60
2018-10-16T16:55:14.946Z,55.90
2018-10-16T16:57:45.466Z,41.30
2018-10-16T17:00:15.266Z,45.13
2018-10-16T17:02:45.780Z,47.97
2018-10-16T17:05:15.622Z,51.33
2018-10-16T17:07:45.200Z,46.57
2018-10-16T17:10:14.666Z,45.50
2018-10-16T17:12:43.715Z,50.23
2018-10-16T17:15:14.675Z,45.07
2018-10-16T17:17:44.527Z,49.33
2018-10-16T17:20:13.635Z,45.37
2018-10-16T17:22:42.830Z,43.13
2018-10-16T17:25:14.243Z,45.20
2018-10-16T17:27:46.397Z,47.20
2018-10-16T17:30:16.924Z,47.27
2018-10-16T17:32:46.852Z,51.23
2018-10-16T17:35:18.120Z,44.10
2018-10-16T17:37:49.638Z,46.23
2018-10-16T17:40:18.757Z,46.47
2018-10-16T17:42:48.002Z,47.23
2018-10-16T17:45:17.800Z,46.70
2018-10-16T17:47:47.126Z,43.93
2018-10-16T17:50:17.679Z,46.10
2018-10-16T17:52:46.935Z,50.40
2018-10-16T17:55:17.176Z,47.00
2018-10-16T17:57:46.626Z,49.50
2018-10-16T18:00:17.385Z,51.03
2018-10-16T18:02:47.066Z,42.00
2018-10-16T18:05:17.080Z,45.33
2018-10-16T18:07:47.168Z,46.27
2018-10-16T18:10:18.748Z,50.13
2018-10-16T18:15:26.478Z,53.70
2018-10-16T18:17:57.098Z,47.57
2018-10-16T18:20:31.593Z,42.53
2018-10-16T18:23:03.452Z,46.27
2018-10-16T18:25:35.468Z,53.60
2018-10-16T18:28:06.256Z,49.67
2018-10-16T18:30:37.710Z,54.20
2018-10-16T18:35:45.639Z,54.00
2018-10-16T18:38:16.107Z,43.77
2018-10-16T18:40:46.471Z,50.27
2018-10-16T18:43:16.793Z,46.97
2018-10-16T18:45:50.181Z,46.90
2018-10-16T18:48:20.273Z,47.47
2018-10-16T18:50:50.147Z,47.03
2018-10-16T18:53:21.051Z,50.97
2018-10-16T18:55:51.117Z,48.40
2018-10-16T18:58:21.604Z,53.63
2018-10-16T19:00:51.455Z,46.17
2018-10-16T19:03:21.209Z,51.43
2018-10-16T19:05:51.511Z,52.67
2018-10-16T19:08:23.267Z,48.60
2018-10-16T19:11:01.389Z,43.97
2018-10-16T19:13:33.925Z,44.60
2018-10-16T19:16:04.647Z,49.33
2018-10-16T19:18:35.893Z,51.97
2018-10-16T19:21:07.786Z,55.00
2018-10-16T19:23:37.948Z,49.90
2018-10-16T19:26:09.147Z,52.97
2018-10-16T19:28:39.901Z,50.10
2018-10-16T19:31:11.785Z,53.93
2018-10-16T19:33:42.953Z,49.20
2018-10-16T19:36:14.681Z,45.97
2018-10-16T19:38:45.189Z,44.50
2018-10-16T19:41:16.306Z,50.30
2018-10-16T19:43:47.949Z,48.53
2018-10-16T19:46:18.619Z,49.57
2018-10-16T19:48:48.889Z,56.13
2018-10-16T19:51:26.131Z,47.80
2018-10-16T19:54:10.785Z,43.83
2018-10-16T19:56:40.862Z,44.90
2018-10-16T19:59:10.253Z,80.37
2018-10-16T20:01:39.767Z,65.67
2018-10-16T20:04:08.999Z,58.77
2018-10-16T20:06:41.104Z,47.83
2018-10-16T20:09:11.617Z,56.93
2018-10-16T20:11:40.854Z,47.43
2018-10-16T20:14:11.607Z,56.43
2018-10-16T20:16:41.009Z,48.80
2018-10-16T20:19:10.283Z,47.10
2018-10-16T20:21:39.529Z,65.37
2018-10-16T20:24:08.897Z,57.77
2018-10-16T20:26:38.286Z,50.27
2018-10-16T20:29:07.566Z,51.50
2018-10-16T20:31:40.712Z,51.50
2018-10-16T20:34:10.081Z,49.93
2018-10-16T20:36:39.875Z,50.73
2018-10-16T20:39:20.034Z,50.80
2018-10-16T20:41:50.549Z,57.47
2018-10-16T20:44:20.715Z,47.27
2018-10-16T20:46:52.639Z,53.93
2018-10-16T20:49:22.239Z,49.93
2018-10-16T20:51:51.873Z,49.17
2018-10-16T20:55:03.352Z,53.33
2018-10-16T20:57:53.091Z,51.93
2018-10-16T21:00:22.939Z,45.37
2018-10-16T21:02:53.277Z,45.50
2018-10-16T21:05:22.693Z,48.07
2018-10-16T21:07:53.560Z,47.23
2018-10-16T21:10:23.835Z,51.87
2018-10-16T21:12:53.283Z,55.13
2018-10-16T22:02:36.515Z,53.60
2018-10-16T22:05:36.854Z,56.50
2018-10-16T22:08:09.255Z,55.77
2018-10-16T22:10:38.905Z,59.93
2018-10-16T22:13:10.552Z,57.47
2018-10-16T22:15:39.966Z,60.90
2018-10-16T22:18:35.205Z,60.00
2018-10-16T22:21:35.839Z,53.47
2018-10-16T22:24:07.813Z,59.57
2018-10-16T22:26:40.842Z,54.90
2018-10-16T22:29:35.446Z,56.40
2018-10-16T22:36:24.560Z,55.17
2018-10-16T22:40:24.252Z,59.83
2018-10-16T22:46:25.228Z,60.33
2018-10-16T22:48:57.319Z,54.50
2018-10-16T22:51:27.077Z,59.17
2018-10-16T22:53:56.845Z,56.73
2018-10-16T22:56:44.448Z,54.07
2018-10-16T22:59:16.406Z,55.80
2018-10-16T23:01:46.152Z,58.70
2018-10-16T23:04:38.101Z,52.70
2018-10-16T23:20:54.312Z,52.98
2018-10-16T23:23:23.552Z,53.13
2018-10-16T23:26:08.855Z,60.57
2018-10-16T23:28:48.022Z,53.40
2018-10-16T23:31:17.605Z,53.87
2018-10-16T23:47:55.788Z,54.10
2018-10-16T23:50:25.028Z,57.90
2018-10-16T23:52:54.435Z,54.30
2018-10-16T23:55:23.900Z,53.57
2018-10-16T23:57:53.335Z,54.00
